Time;durP1;ratioP1;P1;durP2;ratioP2;P2;SDS_P1;SDS_P2;PMS_P1;PMS_P2;Temp;Humidity;BMP_temperature;BMP_pressure;BME280_temperature;BME280_humidity;BME280_pressure;Samples;Min_cycle;Max_cycle;Signal;HPM_P1;HPM_P2
2024/04/02 00:01:48;;;;;;;0.80;0.63;;;;;;;;;;4879464;29;20290;-81
2024/04/02 00:04:15;;;;;;;0.70;0.70;;;;;;;;;;4879365;29;20287;-82
2024/04/02 00:06:41;;;;;;;0.40;0.40;;;;;;;;;;4879902;29;20343;-81
2024/04/02 00:09:08;;;;;;;6.40;0.90;;;;;;;;;;4881762;29;20223;-81
2024/04/02 00:11:34;;;;;;;0.93;0.70;;;;;;;;;;4882774;29;20239;-81
2024/04/02 00:14:00;;;;;;;5.00;1.53;;;;;;;;;;4883033;29;20247;-81
2024/04/02 00:16:26;;;;;;;0.63;0.63;;;;;;;;;;4867409;29;20235;-81
2024/04/02 00:18:52;;;;;;;0.87;0.87;;;;;;;;;;4873623;29;20203;-81
2024/04/02 00:21:20;;;;;;;0.60;0.60;;;;;;;;;;4913162;29;20294;-81
2024/04/02 00:23:46;;;;;;;6.50;1.17;;;;;;;;;;4918093;29;20254;-82
2024/04/02 00:26:12;;;;;;;0.57;0.57;;;;;;;;;;4887541;29;20243;-81
2024/04/02 00:28:39;;;;;;;0.87;0.83;;;;;;;;;;4887047;29;20239;-80
2024/04/02 00:31:06;;;;;;;1.70;0.50;;;;;;;;;;4902597;29;20230;-81
2024/04/02 00:33:32;;;;;;;0.50;0.50;;;;;;;;;;4918943;29;20207;-81
2024/04/02 00:36:02;;;;;;;1.20;1.10;;;;;;;;;;4902512;29;20241;-81
2024/04/02 00:38:28;;;;;;;1.00;1.00;;;;;;;;;;4902731;29;20313;-80
2024/04/02 00:40:54;;;;;;;0.50;0.43;;;;;;;;;;4902680;29;20272;-81
2024/04/02 00:43:20;;;;;;;0.70;0.50;;;;;;;;;;4886574;29;20290;-81
2024/04/02 00:45:47;;;;;;;0.40;0.40;;;;;;;;;;4902455;29;20206;-81
2024/04/02 00:48:13;;;;;;;0.87;0.87;;;;;;;;;;4902954;29;20318;-80
2024/04/02 00:50:39;;;;;;;1.10;1.00;;;;;;;;;;4902497;29;20238;-82
2024/04/02 00:53:06;;;;;;;28.03;1.70;;;;;;;;;;4902693;29;20330;-81
2024/04/02 00:55:32;;;;;;;4.60;1.37;;;;;;;;;;4902187;29;20329;-80
2024/04/02 00:57:58;;;;;;;1.60;0.60;;;;;;;;;;4886797;29;20214;-81
2024/04/02 01:00:24;;;;;;;0.90;0.90;;;;;;;;;;4902806;29;20241;-81
2024/04/02 01:02:50;;;;;;;0.87;0.87;;;;;;;;;;4902421;29;20234;-80
2024/04/02 01:05:16;;;;;;;1.23;0.97;;;;;;;;;;4902433;29;20318;-80
2024/04/02 01:07:43;;;;;;;0.30;0.30;;;;;;;;;;4901606;29;20239;-81
2024/04/02 01:10:09;;;;;;;5.70;0.90;;;;;;;;;;4886124;29;20230;-81
2024/04/02 01:12:38;;;;;;;0.50;0.50;;;;;;;;;;4903110;29;20679;-80
2024/04/02 01:15:04;;;;;;;0.40;0.40;;;;;;;;;;4885836;29;20238;-80
2024/04/02 01:17:30;;;;;;;1.90;1.63;;;;;;;;;;4901747;29;20762;-81
2024/04/02 01:19:56;;;;;;;2.83;1.20;;;;;;;;;;4900803;29;20709;-81
2024/04/02 01:22:22;;;;;;;0.53;0.53;;;;;;;;;;4901770;29;20375;-80
2024/04/02 01:24:51;;;;;;;0.83;0.47;;;;;;;;;;4916873;29;20199;-81
2024/04/02 01:27:17;;;;;;;3.87;1.17;;;;;;;;;;4917906;29;20226;-81
2024/04/02 01:29:46;;;;;;;0.37;0.37;;;;;;;;;;4902002;29;20290;-81
2024/04/02 01:32:12;;;;;;;0.83;0.70;;;;;;;;;;4886018;29;20238;-80
2024/04/02 01:34:39;;;;;;;1.20;0.57;;;;;;;;;;4901559;29;20238;-81
2024/04/02 01:37:05;;;;;;;0.63;0.63;;;;;;;;;;4917080;29;20288;-80
2024/04/02 01:39:31;;;;;;;0.80;0.80;;;;;;;;;;4886740;29;20238;-81
2024/04/02 01:41:57;;;;;;;0.60;0.60;;;;;;;;;;4901756;29;20635;-81
2024/04/02 01:44:23;;;;;;;0.97;0.97;;;;;;;;;;4901894;29;20320;-81
2024/04/02 01:46:49;;;;;;;0.50;0.50;;;;;;;;;;4885358;29;20242;-81
2024/04/02 01:49:15;;;;;;;0.50;0.50;;;;;;;;;;4917004;29;20277;-81
2024/04/02 01:51:42;;;;;;;1.53;1.43;;;;;;;;;;4886995;29;20672;-81
2024/04/02 01:54:08;;;;;;;1.53;1.37;;;;;;;;;;4885737;29;20226;-81
2024/04/02 01:56:34;;;;;;;1.03;0.87;;;;;;;;;;4916620;29;20245;-80
2024/04/02 01:59:00;;;;;;;2.10;0.67;;;;;;;;;;4917112;29;20279;-81
2024/04/02 02:01:26;;;;;;;0.33;0.33;;;;;;;;;;4917279;29;20241;-81
2024/04/02 02:03:52;;;;;;;0.30;0.30;;;;;;;;;;4881370;29;20220;-81
2024/04/02 02:06:18;;;;;;;1.50;1.30;;;;;;;;;;4866607;29;20218;-81
2024/04/02 02:08:44;;;;;;;0.70;0.70;;;;;;;;;;4865523;29;20247;-80
2024/04/02 02:11:10;;;;;;;0.50;0.50;;;;;;;;;;4865437;29;20243;-81
2024/04/02 02:13:36;;;;;;;1.80;0.27;;;;;;;;;;4850111;29;20326;-82
2024/04/02 02:16:03;;;;;;;7.30;1.07;;;;;;;;;;4850288;29;20243;-80
2024/04/02 02:18:30;;;;;;;0.57;0.57;;;;;;;;;;4866558;29;20373;-81
2024/04/02 02:20:56;;;;;;;0.50;0.50;;;;;;;;;;4850228;29;20660;-81
2024/04/02 02:23:22;;;;;;;7.63;0.60;;;;;;;;;;4850504;29;20231;-81
2024/04/02 02:25:49;;;;;;;0.23;0.23;;;;;;;;;;4864936;29;20256;-81
2024/04/02 02:28:15;;;;;;;0.53;0.53;;;;;;;;;;4880208;29;20266;-81
2024/04/02 02:30:41;;;;;;;5.00;2.10;;;;;;;;;;4850196;29;20207;-80
2024/04/02 02:33:07;;;;;;;0.50;0.50;;;;;;;;;;4865349;29;20234;-81
2024/04/02 02:35:33;;;;;;;2.23;1.70;;;;;;;;;;4892488;29;20245;-81
2024/04/02 02:37:59;;;;;;;1.60;1.37;;;;;;;;;;4900773;29;20242;-80
2024/04/02 02:40:25;;;;;;;0.30;0.30;;;;;;;;;;4915975;29;20226;-81
2024/04/02 02:42:51;;;;;;;3.40;0.73;;;;;;;;;;4891799;29;20573;-80
2024/04/02 02:45:17;;;;;;;1.80;1.80;;;;;;;;;;4900838;29;20647;-80
2024/04/02 02:47:46;;;;;;;0.20;0.20;;;;;;;;;;4884765;29;20239;-81
2024/04/02 02:50:12;;;;;;;3.60;0.90;;;;;;;;;;4916419;29;20242;-81
2024/04/02 02:52:38;;;;;;;0.23;0.23;;;;;;;;;;4900455;29;20684;-81
2024/04/02 02:55:05;;;;;;;0.30;0.30;;;;;;;;;;4909215;29;20268;-81
2024/04/02 02:57:31;;;;;;;0.23;0.23;;;;;;;;;;4885977;29;20215;-80
2024/04/02 02:59:57;;;;;;;7.83;0.67;;;;;;;;;;4900206;29;20250;-80
2024/04/02 03:02:23;;;;;;;0.63;0.60;;;;;;;;;;4915766;29;20239;-82
2024/04/02 03:04:50;;;;;;;0.53;0.53;;;;;;;;;;4900160;29;20230;-82
2024/04/02 03:07:16;;;;;;;3.47;3.17;;;;;;;;;;4899971;29;20245;-82
2024/04/02 03:09:42;;;;;;;0.40;0.40;;;;;;;;;;4900587;29;20214;-81
2024/04/02 03:12:08;;;;;;;0.33;0.33;;;;;;;;;;4900137;29;20210;-80
2024/04/02 03:14:35;;;;;;;0.20;0.20;;;;;;;;;;4915644;29;20250;-82
2024/04/02 03:17:01;;;;;;;1.63;1.03;;;;;;;;;;4899901;29;20234;-80
2024/04/02 03:19:30;;;;;;;0.50;0.50;;;;;;;;;;4899778;29;20238;-81
2024/04/02 03:21:56;;;;;;;1.63;1.63;;;;;;;;;;4899312;29;20238;-81
2024/04/02 03:24:22;;;;;;;4.83;0.67;;;;;;;;;;4884615;29;20215;-80
2024/04/02 03:26:48;;;;;;;9.03;1.97;;;;;;;;;;4883973;29;20302;-80
2024/04/02 03:29:14;;;;;;;1.00;0.93;;;;;;;;;;4914942;29;20245;-80
2024/04/02 03:31:40;;;;;;;3.93;1.07;;;;;;;;;;4884156;29;20262;-80
2024/04/02 03:34:06;;;;;;;0.20;0.20;;;;;;;;;;4899603;29;20238;-82
2024/04/02 03:36:32;;;;;;;0.30;0.30;;;;;;;;;;4915844;29;20608;-82
2024/04/02 03:38:58;;;;;;;0.20;0.20;;;;;;;;;;4883792;29;20329;-80
2024/04/02 03:41:25;;;;;;;4.80;2.30;;;;;;;;;;4914633;29;20748;-81
2024/04/02 03:43:51;;;;;;;0.87;0.73;;;;;;;;;;4898553;29;20317;-81
2024/04/02 03:46:17;;;;;;;1.50;0.33;;;;;;;;;;4899336;29;20242;-80
2024/04/02 03:48:43;;;;;;;0.83;0.83;;;;;;;;;;4884412;29;20218;-82
2024/04/02 03:51:09;;;;;;;4.63;1.43;;;;;;;;;;4900535;29;20545;-82
2024/04/02 03:53:36;;;;;;;0.40;0.40;;;;;;;;;;4899681;29;20234;-81
2024/04/02 03:56:03;;;;;;;2.00;0.67;;;;;;;;;;4915031;29;20245;-82
2024/04/02 03:58:29;;;;;;;0.30;0.30;;;;;;;;;;4899709;29;20242;-81
2024/04/02 04:00:56;;;;;;;2.93;0.70;;;;;;;;;;4899855;29;20210;-81
2024/04/02 04:03:23;;;;;;;2.00;0.93;;;;;;;;;;4900559;29;20265;-82
2024/04/02 04:06:01;;;;;;;5.53;2.20;;;;;;;;;;4915177;29;20230;-82
2024/04/02 04:08:27;;;;;;;0.83;0.40;;;;;;;;;;4914665;29;20691;-81
2024/04/02 04:10:53;;;;;;;0.90;0.77;;;;;;;;;;4884008;29;20241;-81
2024/04/02 04:13:20;;;;;;;0.90;0.60;;;;;;;;;;4883574;29;20680;-81
2024/04/02 04:15:53;;;;;;;9.80;1.77;;;;;;;;;;4914968;29;20250;-81
2024/04/02 04:18:19;;;;;;;0.40;0.40;;;;;;;;;;4899683;29;20203;-80
2024/04/02 04:20:52;;;;;;;0.53;0.50;;;;;;;;;;4914725;29;20280;-81
2024/04/02 04:23:18;;;;;;;0.53;0.53;;;;;;;;;;4914546;29;20705;-81
2024/04/02 04:25:44;;;;;;;1.40;1.40;;;;;;;;;;4914852;29;20242;-81
2024/04/02 04:28:10;;;;;;;2.10;1.07;;;;;;;;;;4899104;29;20234;-81
2024/04/02 04:30:36;;;;;;;2.13;1.23;;;;;;;;;;4899847;29;20222;-81
2024/04/02 04:33:03;;;;;;;0.40;0.40;;;;;;;;;;4914699;29;20242;-81
2024/04/02 04:35:31;;;;;;;2.30;2.20;;;;;;;;;;4883468;29;20242;-82
2024/04/02 04:37:58;;;;;;;0.47;0.47;;;;;;;;;;4899035;29;20709;-82
2024/04/02 04:40:24;;;;;;;0.73;0.63;;;;;;;;;;4899143;29;20242;-82
2024/04/02 04:42:50;;;;;;;4.57;1.43;;;;;;;;;;4914538;29;20290;-80
2024/04/02 04:45:16;;;;;;;1.23;0.77;;;;;;;;;;4915181;29;20203;-82
2024/04/02 04:47:42;;;;;;;0.33;0.33;;;;;;;;;;4899013;29;20242;-81
2024/04/02 04:50:08;;;;;;;0.50;0.50;;;;;;;;;;4883723;29;20238;-81
2024/04/02 04:52:35;;;;;;;0.60;0.60;;;;;;;;;;4899067;29;20242;-82
2024/04/02 04:55:01;;;;;;;1.37;1.07;;;;;;;;;;4916503;29;20294;-80
2024/04/02 04:57:27;;;;;;;1.10;1.00;;;;;;;;;;4902691;29;20210;-82
2024/04/02 04:59:53;;;;;;;3.60;1.30;;;;;;;;;;4886553;29;20238;-81
2024/04/02 05:02:19;;;;;;;1.83;1.73;;;;;;;;;;4901461;29;20603;-82
2024/04/02 05:04:45;;;;;;;2.17;1.90;;;;;;;;;;4885993;29;20239;-82
2024/04/02 05:07:22;;;;;;;3.73;3.07;;;;;;;;;;4901636;29;20238;-81
2024/04/02 05:09:48;;;;;;;1.30;1.30;;;;;;;;;;4916911;29;20234;-80
2024/04/02 05:12:14;;;;;;;3.50;2.67;;;;;;;;;;4886637;29;20221;-81
2024/04/02 05:14:40;;;;;;;3.30;2.70;;;;;;;;;;4902028;29;20301;-81
2024/04/02 05:17:06;;;;;;;3.33;3.13;;;;;;;;;;4917772;29;20297;-81
2024/04/02 05:19:32;;;;;;;2.83;2.63;;;;;;;;;;4886376;29;20234;-81
2024/04/02 05:21:58;;;;;;;2.00;1.17;;;;;;;;;;4886293;29;20257;-82
2024/04/02 05:24:24;;;;;;;4.83;4.07;;;;;;;;;;4886858;29;20230;-81
2024/04/02 05:26:51;;;;;;;1.97;1.87;;;;;;;;;;4885719;29;20264;-82
2024/04/02 05:29:19;;;;;;;3.90;3.50;;;;;;;;;;4901961;29;20231;-81
2024/04/02 05:31:45;;;;;;;1.23;1.13;;;;;;;;;;4901303;29;20230;-81
2024/04/02 05:34:12;;;;;;;2.43;2.23;;;;;;;;;;4886256;29;20346;-82
2024/04/02 05:36:38;;;;;;;2.63;1.87;;;;;;;;;;4902032;29;20226;-81
2024/04/02 05:39:05;;;;;;;4.10;2.90;;;;;;;;;;4900973;29;20672;-81
2024/04/02 05:41:31;;;;;;;1.70;1.60;;;;;;;;;;4901656;29;20329;-81
2024/04/02 05:43:57;;;;;;;1.43;1.33;;;;;;;;;;4901108;29;20286;-81
2024/04/02 05:46:23;;;;;;;14.27;1.63;;;;;;;;;;4900969;29;20289;-81
2024/04/02 05:48:49;;;;;;;2.10;1.63;;;;;;;;;;4886164;29;20254;-82
2024/04/02 05:51:16;;;;;;;3.17;2.50;;;;;;;;;;4917638;29;20219;-82
2024/04/02 05:53:43;;;;;;;1.37;1.30;;;;;;;;;;4900988;29;20246;-82
2024/04/02 05:56:09;;;;;;;3.53;1.67;;;;;;;;;;4886110;29;20243;-82
2024/04/02 05:58:35;;;;;;;1.33;1.27;;;;;;;;;;4917013;29;20249;-81
2024/04/02 06:01:05;;;;;;;1.77;1.67;;;;;;;;;;4900943;29;20203;-80
2024/04/02 06:03:31;;;;;;;2.13;1.70;;;;;;;;;;4901069;29;20203;-81
2024/04/02 06:05:57;;;;;;;1.90;1.80;;;;;;;;;;4915408;29;20242;-80
2024/04/02 06:08:23;;;;;;;1.07;0.80;;;;;;;;;;4915744;29;20273;-81
2024/04/02 06:10:52;;;;;;;2.23;1.33;;;;;;;;;;4880897;29;20246;-81
2024/04/02 06:13:18;;;;;;;5.93;1.97;;;;;;;;;;4865209;29;20711;-81
2024/04/02 06:15:44;;;;;;;1.83;1.73;;;;;;;;;;4850018;29;20262;-82
2024/04/02 06:18:10;;;;;;;7.43;2.00;;;;;;;;;;4851020;29;20302;-81
2024/04/02 06:20:36;;;;;;;1.87;1.77;;;;;;;;;;4865341;29;20246;-81
2024/04/02 06:23:02;;;;;;;3.33;2.30;;;;;;;;;;4849785;29;20639;-81
2024/04/02 06:25:29;;;;;;;2.20;2.00;;;;;;;;;;4880783;29;20239;-81
2024/04/02 06:27:55;;;;;;;1.80;1.63;;;;;;;;;;4864832;29;20293;-81
2024/04/02 06:30:21;;;;;;;2.27;2.00;;;;;;;;;;4850208;29;20203;-82
2024/04/02 06:32:47;;;;;;;1.53;1.43;;;;;;;;;;4880286;29;20273;-81
2024/04/02 06:35:13;;;;;;;3.07;2.57;;;;;;;;;;4864830;29;20242;-81
2024/04/02 06:37:39;;;;;;;3.50;1.80;;;;;;;;;;4865086;29;20291;-81
2024/04/02 06:40:05;;;;;;;2.07;1.20;;;;;;;;;;4880311;29;20238;-82
2024/04/02 06:42:31;;;;;;;2.37;2.17;;;;;;;;;;4865216;29;20278;-81
2024/04/02 06:44:57;;;;;;;2.57;1.50;;;;;;;;;;4880036;29;20242;-80
2024/04/02 06:47:24;;;;;;;3.53;3.23;;;;;;;;;;4883221;29;20250;-80
2024/04/02 06:49:50;;;;;;;3.73;2.63;;;;;;;;;;4899654;29;20246;-80
2024/04/02 06:52:16;;;;;;;2.00;1.80;;;;;;;;;;4900144;29;20382;-80
2024/04/02 06:54:45;;;;;;;3.60;1.60;;;;;;;;;;4885222;29;20248;-81
2024/04/02 06:57:11;;;;;;;2.70;2.40;;;;;;;;;;4900516;29;20230;-80
2024/04/02 06:59:38;;;;;;;1.90;1.80;;;;;;;;;;4915283;29;20242;-80
2024/04/02 07:02:06;;;;;;;5.13;1.83;;;;;;;;;;4884358;29;20285;-81
2024/04/02 07:04:32;;;;;;;2.03;1.90;;;;;;;;;;4899374;29;20255;-81
2024/04/02 07:06:58;;;;;;;1.40;1.27;;;;;;;;;;4884650;29;20226;-82
2024/04/02 07:09:25;;;;;;;1.80;0.80;;;;;;;;;;4885208;29;20306;-80
2024/04/02 07:11:51;;;;;;;2.73;1.97;;;;;;;;;;4899464;29;20239;-80
2024/04/02 07:14:17;;;;;;;2.33;0.97;;;;;;;;;;4899385;29;20734;-81
2024/04/02 07:16:43;;;;;;;1.80;1.50;;;;;;;;;;4915551;29;20301;-82
2024/04/02 07:19:10;;;;;;;1.50;1.40;;;;;;;;;;4898627;29;20561;-81
2024/04/02 07:21:37;;;;;;;4.40;2.10;;;;;;;;;;4915794;29;20199;-82
2024/04/02 07:24:03;;;;;;;1.10;1.10;;;;;;;;;;4899064;29;20570;-81
2024/04/02 07:26:29;;;;;;;1.50;1.40;;;;;;;;;;4914925;29;20249;-81
2024/04/02 07:28:55;;;;;;;1.63;1.20;;;;;;;;;;4899465;29;20561;-82
2024/04/02 07:31:24;;;;;;;1.60;1.40;;;;;;;;;;4899251;29;20265;-82
2024/04/02 07:33:51;;;;;;;1.37;1.27;;;;;;;;;;4883786;29;20213;-81
2024/04/02 07:36:18;;;;;;;2.67;1.93;;;;;;;;;;4883668;29;20211;-82
2024/04/02 07:38:44;;;;;;;2.30;1.57;;;;;;;;;;4914529;29;20297;-81
2024/04/02 07:41:10;;;;;;;7.77;1.17;;;;;;;;;;4883533;29;20317;-80
2024/04/02 07:43:36;;;;;;;5.10;2.03;;;;;;;;;;4883523;29;20245;-82
2024/04/02 07:46:03;;;;;;;3.70;2.33;;;;;;;;;;4899135;29;20237;-81
2024/04/02 07:48:29;;;;;;;1.40;1.30;;;;;;;;;;4884029;29;20226;-81
2024/04/02 07:50:56;;;;;;;8.80;1.77;;;;;;;;;;4898921;29;20262;-82
2024/04/02 07:53:24;;;;;;;1.50;1.40;;;;;;;;;;4914755;29;20242;-81
2024/04/02 07:55:50;;;;;;;2.20;2.00;;;;;;;;;;4899015;29;20242;-81
2024/04/02 07:58:16;;;;;;;1.33;1.13;;;;;;;;;;4899126;29;20777;-81
2024/04/02 08:00:44;;;;;;;2.40;1.43;;;;;;;;;;4898877;29;20206;-81
2024/04/02 08:03:10;;;;;;;16.33;2.20;;;;;;;;;;4900161;29;20263;-81
2024/04/02 08:05:36;;;;;;;1.47;1.10;;;;;;;;;;4860935;29;20275;-84
2024/04/02 08:08:05;;;;;;;1.97;1.87;;;;;;;;;;4831362;29;20239;-87
2024/04/02 08:10:31;;;;;;;3.27;2.23;;;;;;;;;;4831074;29;20299;-87
2024/04/02 08:12:58;;;;;;;8.23;1.63;;;;;;;;;;4831245;29;20218;-86
2024/04/02 08:15:24;;;;;;;0.60;0.60;;;;;;;;;;4832125;29;20208;-85
2024/04/02 08:17:50;;;;;;;1.67;1.57;;;;;;;;;;4861443;29;20303;-84
2024/04/02 08:20:16;;;;;;;1.00;1.00;;;;;;;;;;4845533;29;20272;-84
2024/04/02 08:22:45;;;;;;;1.03;0.70;;;;;;;;;;4830764;29;20568;-86
2024/04/02 08:25:11;;;;;;;3.73;1.07;;;;;;;;;;4845545;29;20242;-86
2024/04/02 08:27:37;;;;;;;1.47;0.80;;;;;;;;;;4861332;29;20726;-85
2024/04/02 08:30:05;;;;;;;1.23;1.10;;;;;;;;;;4846839;29;20275;-88
2024/04/02 08:32:32;;;;;;;1.07;1.07;;;;;;;;;;4848691;29;20235;-87
2024/04/02 08:34:58;;;;;;;1.40;1.27;;;;;;;;;;4848960;29;20314;-88
2024/04/02 08:37:24;;;;;;;2.53;1.17;;;;;;;;;;4893460;29;20309;-86
2024/04/02 08:39:51;;;;;;;1.97;1.20;;;;;;;;;;4878453;29;20277;-89
2024/04/02 08:42:19;;;;;;;5.17;1.57;;;;;;;;;;4903684;29;20210;-87
2024/04/02 08:44:46;;;;;;;1.33;1.23;;;;;;;;;;4902009;29;20246;-85
2024/04/02 08:47:13;;;;;;;3.93;0.97;;;;;;;;;;4886767;29;20372;-86
2024/04/02 08:49:40;;;;;;;3.30;1.47;;;;;;;;;;4902523;29;20366;-87
2024/04/02 08:52:06;;;;;;;2.53;1.30;;;;;;;;;;4886874;29;20230;-84
2024/04/02 08:54:36;;;;;;;1.77;1.00;;;;;;;;;;4903133;29;20207;-83
2024/04/02 08:57:04;;;;;;;1.30;0.87;;;;;;;;;;4903169;29;20370;-86
2024/04/02 08:59:32;;;;;;;1.67;1.57;;;;;;;;;;4917846;29;20237;-86
2024/04/02 09:01:58;;;;;;;4.27;2.13;;;;;;;;;;4901828;29;20621;-83
2024/04/02 09:04:25;;;;;;;3.50;1.20;;;;;;;;;;4886600;29;20290;-85
2024/04/02 09:06:52;;;;;;;1.60;1.30;;;;;;;;;;4887273;29;20226;-85
2024/04/02 09:09:21;;;;;;;4.13;0.97;;;;;;;;;;4902827;29;20293;-85
2024/04/02 09:11:49;;;;;;;1.00;0.90;;;;;;;;;;4901783;29;20301;-85
2024/04/02 09:14:16;;;;;;;0.70;0.33;;;;;;;;;;4917862;29;20262;-85
2024/04/02 09:16:42;;;;;;;4.03;0.90;;;;;;;;;;4898063;29;20294;-85
2024/04/02 09:19:08;;;;;;;1.03;0.90;;;;;;;;;;4866549;29;20321;-85
2024/04/02 09:21:34;;;;;;;6.13;0.97;;;;;;;;;;4898465;29;20722;-84
2024/04/02 09:24:00;;;;;;;6.57;1.17;;;;;;;;;;4897677;29;20314;-84
2024/04/02 09:26:26;;;;;;;6.43;0.97;;;;;;;;;;4897767;29;20459;-86
2024/04/02 09:28:52;;;;;;;3.33;1.00;;;;;;;;;;4866318;29;20261;-86
2024/04/02 09:31:19;;;;;;;1.07;1.07;;;;;;;;;;4897677;29;20262;-84
2024/04/02 09:33:48;;;;;;;0.80;0.80;;;;;;;;;;4882491;29;20251;-85
2024/04/02 09:36:34;;;;;;;4.03;1.17;;;;;;;;;;4898273;29;20371;-85
2024/04/02 09:39:04;;;;;;;1.17;1.07;;;;;;;;;;4882111;29;20335;-85
2024/04/02 09:41:32;;;;;;;0.57;0.57;;;;;;;;;;4866144;29;20239;-87
2024/04/02 09:44:01;;;;;;;4.57;1.43;;;;;;;;;;4881223;29;20346;-88
2024/04/02 09:46:28;;;;;;;5.60;1.43;;;;;;;;;;4897856;29;20255;-87
2024/04/02 09:48:55;;;;;;;9.67;1.50;;;;;;;;;;4886150;29;20211;-85
2024/04/02 09:51:21;;;;;;;1.93;1.13;;;;;;;;;;4902675;29;20242;-89
2024/04/02 09:53:48;;;;;;;2.83;0.97;;;;;;;;;;4901237;29;20235;-87
2024/04/02 09:56:15;;;;;;;2.67;0.87;;;;;;;;;;4885985;29;20298;-87
2024/04/02 09:58:42;;;;;;;0.33;0.30;;;;;;;;;;4901223;29;20249;-87
2024/04/02 10:01:11;;;;;;;2.60;1.07;;;;;;;;;;4876794;29;20265;-87
2024/04/02 10:03:37;;;;;;;4.00;1.47;;;;;;;;;;4886386;29;20211;-87
2024/04/02 10:06:05;;;;;;;4.83;2.27;;;;;;;;;;4916626;29;20235;-87
2024/04/02 10:08:31;;;;;;;2.17;1.40;;;;;;;;;;4900557;29;20242;-88
2024/04/02 10:10:58;;;;;;;6.03;2.03;;;;;;;;;;4901070;29;20245;-88
2024/04/02 10:13:39;;;;;;;7.43;2.43;;;;;;;;;;4900393;29;20238;-91
2024/04/02 10:16:11;;;;;;;2.37;1.40;;;;;;;;;;4901483;29;20234;-86
2024/04/02 10:18:44;;;;;;;6.17;1.17;;;;;;;;;;4901786;29;20206;-87
2024/04/02 10:21:10;;;;;;;1.17;1.13;;;;;;;;;;4900826;29;20231;-87
2024/04/02 10:23:37;;;;;;;2.47;0.80;;;;;;;;;;4885591;29;20234;-89
2024/04/02 10:26:03;;;;;;;7.23;1.87;;;;;;;;;;4885529;29;20325;-88
2024/04/02 10:28:32;;;;;;;3.47;1.10;;;;;;;;;;4884872;29;20238;-87
2024/04/02 10:30:58;;;;;;;0.80;0.80;;;;;;;;;;4901227;29;20202;-88
2024/04/02 10:33:28;;;;;;;1.33;1.23;;;;;;;;;;4916828;29;20217;-88
2024/04/02 10:35:54;;;;;;;1.73;1.17;;;;;;;;;;4899880;29;20326;-88
2024/04/02 10:38:21;;;;;;;0.77;0.77;;;;;;;;;;4884646;29;20258;-86
2024/04/02 10:40:50;;;;;;;1.40;1.30;;;;;;;;;;4899775;29;20294;-86
2024/04/02 10:43:19;;;;;;;2.10;1.43;;;;;;;;;;4870491;29;20326;-89
2024/04/02 10:45:48;;;;;;;4.23;1.10;;;;;;;;;;4868816;29;20226;-86
2024/04/02 10:48:15;;;;;;;1.87;1.57;;;;;;;;;;4884994;29;20235;-88
2024/04/02 10:50:41;;;;;;;2.37;1.67;;;;;;;;;;4868507;29;20270;-89
2024/04/02 10:53:07;;;;;;;7.57;1.60;;;;;;;;;;4868028;29;20242;-88
2024/04/02 10:55:33;;;;;;;1.20;1.03;;;;;;;;;;4868794;29;20242;-87
2024/04/02 10:58:00;;;;;;;3.47;2.40;;;;;;;;;;4868834;29;20210;-87
2024/04/02 11:00:26;;;;;;;4.63;2.00;;;;;;;;;;4862836;29;20216;-87
2024/04/02 11:02:52;;;;;;;2.23;1.13;;;;;;;;;;4862328;29;20255;-87
2024/04/02 11:05:19;;;;;;;4.03;1.93;;;;;;;;;;4831573;29;20280;-87
2024/04/02 11:07:46;;;;;;;2.60;1.97;;;;;;;;;;4847597;29;20844;-88
2024/04/02 11:10:12;;;;;;;4.60;1.27;;;;;;;;;;4865394;29;20239;-88
2024/04/02 11:12:39;;;;;;;4.70;1.60;;;;;;;;;;4866336;29;20227;-86
2024/04/02 11:15:09;;;;;;;3.13;1.10;;;;;;;;;;4864891;29;20745;-87
2024/04/02 11:17:35;;;;;;;0.67;0.67;;;;;;;;;;4865179;29;20262;-85
2024/04/02 11:20:09;;;;;;;1.30;0.80;;;;;;;;;;4865296;29;20258;-89
2024/04/02 11:25:20;;;;;;;3.07;1.80;;;;;;;;;;4879900;29;20235;-88
2024/04/02 11:27:47;;;;;;;0.87;0.77;;;;;;;;;;4865263;29;20275;-89
2024/04/02 11:30:15;;;;;;;1.73;1.37;;;;;;;;;;4866132;29;20327;-89
2024/04/02 11:32:41;;;;;;;4.90;1.30;;;;;;;;;;4898787;29;20243;-88
2024/04/02 11:35:14;;;;;;;2.60;0.50;;;;;;;;;;4883574;29;20242;-88
2024/04/02 11:37:41;;;;;;;1.43;0.70;;;;;;;;;;4883382;29;20230;-87
2024/04/02 11:40:08;;;;;;;1.23;1.17;;;;;;;;;;4898516;29;20254;-88
2024/04/02 11:42:34;;;;;;;2.00;1.10;;;;;;;;;;4884055;29;20214;-89
2024/04/02 11:45:00;;;;;;;3.20;1.30;;;;;;;;;;4882864;29;20253;-88
2024/04/02 11:47:36;;;;;;;2.60;0.87;;;;;;;;;;4883356;29;20245;-89
2024/04/02 11:50:02;;;;;;;1.83;0.77;;;;;;;;;;4882852;29;20248;-88
2024/04/02 11:52:29;;;;;;;6.80;1.13;;;;;;;;;;4883114;29;20270;-87
2024/04/02 11:54:55;;;;;;;0.87;0.47;;;;;;;;;;4867672;29;20228;-88
2024/04/02 12:00:10;;;;;;;0.40;0.40;;;;;;;;;;4885793;29;20665;-88
2024/04/02 12:02:38;;;;;;;3.20;0.70;;;;;;;;;;4883330;29;20346;-91
2024/04/02 12:05:05;;;;;;;3.07;0.80;;;;;;;;;;4877274;29;20690;-89
2024/04/02 12:07:32;;;;;;;1.40;0.90;;;;;;;;;;4879080;29;20243;-89
2024/04/02 12:09:59;;;;;;;6.20;0.90;;;;;;;;;;4887577;29;20616;-88
2024/04/02 12:12:28;;;;;;;4.70;0.97;;;;;;;;;;4888522;29;20222;-89
2024/04/02 12:14:55;;;;;;;3.50;0.93;;;;;;;;;;4903226;29;20242;-88
2024/04/02 12:17:21;;;;;;;3.40;1.30;;;;;;;;;;4918864;29;20234;-89
2024/04/02 12:19:47;;;;;;;1.23;0.80;;;;;;;;;;4887988;29;20286;-88
2024/04/02 12:22:13;;;;;;;1.40;0.87;;;;;;;;;;4903009;29;20697;-88
2024/04/02 12:24:40;;;;;;;0.87;0.60;;;;;;;;;;4903645;29;20213;-86
2024/04/02 12:27:06;;;;;;;3.63;1.10;;;;;;;;;;4887957;29;20242;-90
2024/04/02 12:29:33;;;;;;;2.00;1.27;;;;;;;;;;4903065;29;20689;-88
2024/04/02 12:32:02;;;;;;;2.07;0.43;;;;;;;;;;4903155;29;20258;-85
2024/04/02 12:34:28;;;;;;;0.57;0.47;;;;;;;;;;4903229;29;20254;-86
2024/04/02 12:36:54;;;;;;;0.60;0.60;;;;;;;;;;4902841;29;20207;-86
2024/04/02 12:39:20;;;;;;;0.73;0.67;;;;;;;;;;4903613;29;20207;-85
2024/04/02 12:41:48;;;;;;;5.20;1.53;;;;;;;;;;4918152;29;20321;-86
2024/04/02 12:44:14;;;;;;;1.50;1.30;;;;;;;;;;4902389;29;20246;-87
2024/04/02 12:46:41;;;;;;;2.80;0.70;;;;;;;;;;4918502;29;20242;-87
2024/04/02 12:49:10;;;;;;;0.60;0.60;;;;;;;;;;4903288;29;20313;-86
2024/04/02 12:51:40;;;;;;;0.93;0.70;;;;;;;;;;4903835;29;20213;-89
2024/04/02 12:54:06;;;;;;;0.93;0.83;;;;;;;;;;4902612;29;20242;-87
2024/04/02 12:56:32;;;;;;;3.60;0.90;;;;;;;;;;4887289;29;20329;-86
2024/04/02 12:58:58;;;;;;;1.23;0.80;;;;;;;;;;4902805;29;20297;-86
2024/04/02 13:01:25;;;;;;;1.53;1.33;;;;;;;;;;4902726;29;20235;-85
2024/04/02 13:03:51;;;;;;;0.63;0.63;;;;;;;;;;4902936;29;20238;-88
2024/04/02 13:06:18;;;;;;;0.47;0.47;;;;;;;;;;4903350;29;20211;-88
2024/04/02 13:08:45;;;;;;;1.10;1.10;;;;;;;;;;4902089;29;20243;-87
2024/04/02 13:11:14;;;;;;;0.57;0.50;;;;;;;;;;4902828;29;20234;-90
2024/04/02 13:13:42;;;;;;;0.27;0.20;;;;;;;;;;4917992;29;20239;-91
2024/04/02 13:16:30;;;;;;;1.07;1.07;;;;;;;;;;4882603;29;20255;-88
2024/04/02 13:19:00;;;;;;;0.63;0.47;;;;;;;;;;4882619;29;20275;-92
2024/04/02 13:21:29;;;;;;;1.80;0.70;;;;;;;;;;4883854;29;20226;-92
2024/04/02 13:23:58;;;;;;;2.00;0.40;;;;;;;;;;4871654;29;20706;-92
2024/04/02 13:26:29;;;;;;;0.70;0.60;;;;;;;;;;4882234;29;20246;-89
2024/04/02 13:28:57;;;;;;;0.50;0.50;;;;;;;;;;4882448;29;20802;-88
2024/04/02 13:31:24;;;;;;;1.27;1.00;;;;;;;;;;4882391;29;20266;-88
2024/04/02 13:33:51;;;;;;;1.30;1.20;;;;;;;;;;4882466;29;20298;-90
2024/04/02 13:36:20;;;;;;;2.33;0.53;;;;;;;;;;4883458;29;20211;-91
2024/04/02 13:38:47;;;;;;;0.90;0.87;;;;;;;;;;4870486;29;20780;-88
2024/04/02 13:41:13;;;;;;;0.67;0.67;;;;;;;;;;4881968;29;20246;-89
2024/04/02 13:43:49;;;;;;;;;;;;;;;;;;;;;
2024/04/02 13:46:18;;;;;;;0.80;0.70;;;;;;;;;;4878603;29;20244;-92
2024/04/02 13:48:45;;;;;;;1.60;0.90;;;;;;;;;;4901633;29;20309;-88
2024/04/02 13:51:21;;;;;;;1.00;1.00;;;;;;;;;;4902620;29;20266;-88
2024/04/02 13:53:49;;;;;;;4.10;1.47;;;;;;;;;;4917491;29;20230;-91
2024/04/02 13:56:16;;;;;;;1.13;0.87;;;;;;;;;;4901393;29;20242;-87
2024/04/02 13:58:46;;;;;;;0.73;0.47;;;;;;;;;;4886068;29;20257;-92
2024/04/02 14:01:17;;;;;;;0.70;0.50;;;;;;;;;;4902539;29;20241;-89
2024/04/02 14:03:45;;;;;;;2.60;1.17;;;;;;;;;;4901610;29;20214;-89
2024/04/02 14:06:14;;;;;;;1.37;0.80;;;;;;;;;;4902182;29;20203;-93
2024/04/02 14:09:14;;;;;;;;;;;;;;;;;;;;;
2024/04/02 14:11:52;;;;;;;2.40;1.70;;;;;;;;;;4920757;29;20244;-94
2024/04/02 14:17:33;;;;;;;1.13;0.90;;;;;;;;;;4881250;29;20240;-94
2024/04/02 14:23:30;;;;;;;3.33;1.63;;;;;;;;;;4861811;29;20317;-95
2024/04/02 14:26:26;;;;;;;1.40;1.07;;;;;;;;;;4884854;29;20680;-94
2024/04/02 14:29:12;;;;;;;1.20;1.10;;;;;;;;;;4889765;29;20222;-94
2024/04/02 14:31:43;;;;;;;8.20;2.07;;;;;;;;;;4903640;29;20242;-92
2024/04/02 14:34:09;;;;;;;5.83;1.90;;;;;;;;;;4886331;29;20332;-92
2024/04/02 14:36:38;;;;;;;2.63;1.03;;;;;;;;;;4902362;29;20572;-92
2024/04/02 14:39:05;;;;;;;2.53;1.67;;;;;;;;;;4900834;29;20733;-89
2024/04/02 14:41:31;;;;;;;11.83;2.20;;;;;;;;;;4881550;29;20239;-87
2024/04/02 14:43:57;;;;;;;3.47;2.10;;;;;;;;;;4865958;29;20235;-88
2024/04/02 14:46:24;;;;;;;4.53;1.60;;;;;;;;;;4881119;29;20235;-85
2024/04/02 14:48:50;;;;;;;5.43;2.03;;;;;;;;;;4880913;29;20247;-87
2024/04/02 14:51:16;;;;;;;3.00;1.60;;;;;;;;;;4866724;29;20239;-89
2024/04/02 14:53:42;;;;;;;1.13;1.00;;;;;;;;;;4881058;29;20283;-86
2024/04/02 14:56:08;;;;;;;2.47;1.07;;;;;;;;;;4880868;29;20250;-87
2024/04/02 14:58:34;;;;;;;3.83;1.17;;;;;;;;;;4880518;29;20239;-85